Time;durP1;ratioP1;P1;durP2;ratioP2;P2;SDS_P1;SDS_P2;PMS_P1;PMS_P2;Temp;Humidity;BMP_temperature;BMP_pressure;BME280_temperature;BME280_humidity;BME280_pressure;Samples;Min_cycle;Max_cycle;Signal;HPM_P1;HPM_P2
2023/12/03 00:01:32;;;;;;;;;;;;;;;;;;5019925;28;20268;-74
2023/12/03 00:03:58;;;;;;;;;;;;;;;;;;5010730;28;19936;-74
2023/12/03 00:06:24;;;;;;;;;;;;;;;;;;5050161;28;20370;-74
2023/12/03 00:08:50;;;;;;;;;;;;;;;;;;5018821;28;19927;-74
2023/12/03 00:11:16;;;;;;;;;;;;;;;;;;5038063;28;19947;-74
2023/12/03 00:13:42;;;;;;;;;;;;;;;;;;5016647;28;19951;-74
2023/12/03 00:16:09;;;;;;;;;;;;;;;;;;5030955;28;19925;-74
2023/12/03 00:18:35;;;;;;;;;;;;;;;;;;5015258;28;19929;-74
2023/12/03 00:21:01;;;;;;;;;;;;;;;;;;5021002;28;19939;-75
2023/12/03 00:23:27;;;;;;;;;;;;;;;;;;5039880;28;19928;-74
2023/12/03 00:25:52;;;;;;;;;;;;;;;;;;5031137;28;19932;-74
2023/12/03 00:28:18;;;;;;;;;;;;;;;;;;5032917;28;19921;-74
2023/12/03 00:30:44;;;;;;;;;;;;;;;;;;5028618;28;20252;-74
2023/12/03 00:33:10;;;;;;;;;;;;;;;;;;5019257;28;19921;-74
2023/12/03 00:35:36;;;;;;;;;;;;;;;;;;5046703;28;20542;-74
2023/12/03 00:38:02;;;;;;;;;;;;;;;;;;5014766;28;19921;-74
2023/12/03 00:40:28;;;;;;;;;;;;;;;;;;5010828;28;20379;-74
2023/12/03 00:42:54;;;;;;;;;;;;;;;;;;5013831;28;19921;-74
2023/12/03 00:45:22;;;;;;;;;;;;;;;;;;5046028;28;21594;-74
2023/12/03 00:47:48;;;;;;;;;;;;;;;;;;5035767;28;19983;-74
2023/12/03 00:50:13;;;;;;;;;;;;;;;;;;5018814;28;19925;-75
2023/12/03 00:52:39;;;;;;;;;;;;;;;;;;5048144;28;19974;-74
2023/12/03 00:55:05;;;;;;;;;;;;;;;;;;5037370;28;19931;-74
2023/12/03 00:57:32;;;;;;;;;;;;;;;;;;5004419;28;19925;-74
2023/12/03 00:59:58;;;;;;;;;;;;;;;;;;5027798;28;20390;-74
2023/12/03 01:02:24;;;;;;;;;;;;;;;;;;5027088;28;20008;-74
2023/12/03 01:04:49;;;;;;;;;;;;;;;;;;5048319;28;19927;-74
2023/12/03 01:07:15;;;;;;;;;;;;;;;;;;5037721;28;19984;-74
2023/12/03 01:09:41;;;;;;;;;;;;;;;;;;5034580;28;21083;-74
2023/12/03 01:12:07;;;;;;;;;;;;;;;;;;5039081;28;19937;-74
2023/12/03 01:14:33;;;;;;;;;;;;;;;;;;5017579;28;19925;-74
2023/12/03 01:16:59;;;;;;;;;;;;;;;;;;5037561;28;19994;-74
2023/12/03 01:19:25;;;;;;;;;;;;;;;;;;5014977;28;19971;-74
2023/12/03 01:21:51;;;;;;;;;;;;;;;;;;5047223;28;19929;-74
2023/12/03 01:24:17;;;;;;;;;;;;;;;;;;5025002;28;19928;-74
2023/12/03 01:26:43;;;;;;;;;;;;;;;;;;5013710;28;21521;-74
2023/12/03 01:29:09;;;;;;;;;;;;;;;;;;5015479;28;19987;-74
2023/12/03 01:31:35;;;;;;;;;;;;;;;;;;5026241;28;19944;-74
2023/12/03 01:34:02;;;;;;;;;;;;;;;;;;5017654;28;19978;-74
2023/12/03 01:36:28;;;;;;;;;;;;;;;;;;5036796;28;20270;-74
2023/12/03 01:38:53;;;;;;;;;;;;;;;;;;5027728;28;19921;-74
2023/12/03 01:41:19;;;;;;;;;;;;;;;;;;5041833;28;19936;-74
2023/12/03 01:43:45;;;;;;;;;;;;;;;;;;5022408;28;20031;-73
2023/12/03 01:46:11;;;;;;;;;;;;;;;;;;5026900;28;20331;-74
2023/12/03 01:48:37;;;;;;;;;;;;;;;;;;5032657;28;20011;-74
2023/12/03 01:51:03;;;;;;;;;;;;;;;;;;5022536;28;19929;-74
2023/12/03 01:53:29;;;;;;;;;;;;;;;;;;5023471;28;20016;-74
2023/12/03 01:55:55;;;;;;;;;;;;;;;;;;5022206;28;19921;-74
2023/12/03 01:58:21;;;;;;;;;;;;;;;;;;5036975;28;19932;-74
2023/12/03 02:00:47;;;;;;;;;;;;;;;;;;5037498;28;19929;-74
2023/12/03 02:03:13;;;;;;;;;;;;;;;;;;5037074;28;20466;-74
2023/12/03 02:05:39;;;;;;;;;;;;;;;;;;5021748;28;19929;-74
2023/12/03 02:08:05;;;;;;;;;;;;;;;;;;5036255;28;19929;-74
2023/12/03 02:10:31;;;;;;;;;;;;;;;;;;5030710;28;19925;-74
2023/12/03 02:13:00;;;;;;;;;;;;;;;;;;5038320;28;20275;-74
2023/12/03 02:15:25;;;;;;;;;;;;;;;;;;5022938;28;19940;-74
2023/12/03 02:17:51;;;;;;;;;;;;;;;;;;5038090;28;19922;-74
2023/12/03 02:20:17;;;;;;;;;;;;;;;;;;5013952;28;19992;-74
2023/12/03 02:22:43;;;;;;;;;;;;;;;;;;5031915;28;19932;-74
2023/12/03 02:25:09;;;;;;;;;;;;;;;;;;5036327;28;19971;-74
2023/12/03 02:27:35;;;;;;;;;;;;;;;;;;5013076;28;19998;-75
2023/12/03 02:30:01;;;;;;;;;;;;;;;;;;5040873;28;20370;-74
2023/12/03 02:32:27;;;;;;;;;;;;;;;;;;5007340;28;19925;-75
2023/12/03 02:34:53;;;;;;;;;;;;;;;;;;5023717;28;19922;-68
2023/12/03 02:37:19;;;;;;;;;;;;;;;;;;5025561;28;19929;-68
2023/12/03 02:39:45;;;;;;;;;;;;;;;;;;5045919;28;19925;-69
2023/12/03 02:42:11;;;;;;;;;;;;;;;;;;5043030;28;20012;-68
2023/12/03 02:44:37;;;;;;;;;;;;;;;;;;5000610;28;19964;-68
2023/12/03 02:47:03;;;;;;;;;;;;;;;;;;5044555;28;19972;-68
2023/12/03 02:49:29;;;;;;;;;;;;;;;;;;5030087;28;19921;-68
2023/12/03 02:51:55;;;;;;;;;;;;;;;;;;5048296;28;20378;-68
2023/12/03 02:54:21;;;;;;;;;;;;;;;;;;5033052;28;19928;-68
2023/12/03 02:56:47;;;;;;;;;;;;;;;;;;5034315;28;20592;-69
2023/12/03 02:59:12;;;;;;;;;;;;;;;;;;5021034;28;19921;-69
2023/12/03 03:01:38;;;;;;;;;;;;;;;;;;5018986;28;20414;-69
2023/12/03 03:04:04;;;;;;;;;;;;;;;;;;5012130;28;20294;-69
2023/12/03 03:06:30;;;;;;;;;;;;;;;;;;5004473;28;19932;-69
2023/12/03 03:08:56;;;;;;;;;;;;;;;;;;5019226;28;20004;-69
2023/12/03 03:11:22;;;;;;;;;;;;;;;;;;5012813;28;19940;-69
2023/12/03 03:13:48;;;;;;;;;;;;;;;;;;5012438;28;19929;-68
2023/12/03 03:16:16;;;;;;;;;;;;;;;;;;5021622;28;19929;-68
2023/12/03 03:18:42;;;;;;;;;;;;;;;;;;5044759;28;20108;-68
2023/12/03 03:21:08;;;;;;;;;;;;;;;;;;5029960;28;20058;-68
2023/12/03 03:23:34;;;;;;;;;;;;;;;;;;5016207;28;19957;-68
2023/12/03 03:26:00;;;;;;;;;;;;;;;;;;5039252;28;20016;-68
2023/12/03 03:28:26;;;;;;;;;;;;;;;;;;5024460;28;20016;-68
2023/12/03 03:30:52;;;;;;;;;;;;;;;;;;5030767;28;20012;-68
2023/12/03 03:33:18;;;;;;;;;;;;;;;;;;5041389;28;19925;-68
2023/12/03 03:35:44;;;;;;;;;;;;;;;;;;5008570;28;20345;-68
2023/12/03 03:38:10;;;;;;;;;;;;;;;;;;5011014;28;20334;-68
2023/12/03 03:40:36;;;;;;;;;;;;;;;;;;5028682;28;19929;-68
2023/12/03 03:43:03;;;;;;;;;;;;;;;;;;5022223;28;20633;-68
2023/12/03 03:45:29;;;;;;;;;;;;;;;;;;5030447;28;19921;-68
2023/12/03 03:47:55;;;;;;;;;;;;;;;;;;5048802;28;20282;-68
2023/12/03 03:50:21;;;;;;;;;;;;;;;;;;5018853;28;19927;-68
2023/12/03 03:52:46;;;;;;;;;;;;;;;;;;5037257;28;19929;-68
2023/12/03 03:55:12;;;;;;;;;;;;;;;;;;5026253;28;21242;-68
2023/12/03 03:57:38;;;;;;;;;;;;;;;;;;5019558;28;20464;-68
2023/12/03 04:00:05;;;;;;;;;;;;;;;;;;5044456;28;19925;-68
2023/12/03 04:02:31;;;;;;;;;;;;;;;;;;5029361;28;19928;-68
2023/12/03 04:04:57;;;;;;;;;;;;;;;;;;5029498;28;20023;-68
2023/12/03 04:07:23;;;;;;;;;;;;;;;;;;5036628;28;20353;-68
2023/12/03 04:09:49;;;;;;;;;;;;;;;;;;5033378;28;20008;-68
2023/12/03 04:12:15;;;;;;;;;;;;;;;;;;5017317;28;19931;-68
2023/12/03 04:14:41;;;;;;;;;;;;;;;;;;5039249;28;20202;-68
2023/12/03 04:17:08;;;;;;;;;;;;;;;;;;5018137;28;20420;-68
2023/12/03 04:19:34;;;;;;;;;;;;;;;;;;5024884;28;19925;-68
2023/12/03 04:22:00;;;;;;;;;;;;;;;;;;5011082;28;19945;-68
2023/12/03 04:24:26;;;;;;;;;;;;;;;;;;5035617;28;20290;-68
2023/12/03 04:26:52;;;;;;;;;;;;;;;;;;5014624;28;20008;-68
2023/12/03 04:29:18;;;;;;;;;;;;;;;;;;5028284;28;19932;-68
2023/12/03 04:31:43;;;;;;;;;;;;;;;;;;5014092;28;19940;-68
2023/12/03 04:34:09;;;;;;;;;;;;;;;;;;5011472;28;19930;-68
2023/12/03 04:36:35;;;;;;;;;;;;;;;;;;5009142;28;19943;-68
2023/12/03 04:39:01;;;;;;;;;;;;;;;;;;5022218;28;20579;-68
2023/12/03 04:41:27;;;;;;;;;;;;;;;;;;5019165;28;19936;-68
2023/12/03 04:43:53;;;;;;;;;;;;;;;;;;5028848;28;20400;-68
2023/12/03 04:46:19;;;;;;;;;;;;;;;;;;5015939;28;20031;-68
2023/12/03 04:48:45;;;;;;;;;;;;;;;;;;5038336;28;19946;-68
2023/12/03 04:51:12;;;;;;;;;;;;;;;;;;5011970;28;19933;-68
2023/12/03 04:53:38;;;;;;;;;;;;;;;;;;5020155;28;19929;-69
2023/12/03 04:56:04;;;;;;;;;;;;;;;;;;5046179;28;19959;-68
2023/12/03 04:58:30;;;;;;;;;;;;;;;;;;5026752;28;20362;-68
2023/12/03 05:00:56;;;;;;;;;;;;;;;;;;5019783;28;19931;-68
2023/12/03 05:03:22;;;;;;;;;;;;;;;;;;5016512;28;19921;-68
2023/12/03 05:05:48;;;;;;;;;;;;;;;;;;5019278;28;19928;-69
2023/12/03 05:08:14;;;;;;;;;;;;;;;;;;5009497;28;20015;-68
2023/12/03 05:10:40;;;;;;;;;;;;;;;;;;5013289;28;19928;-68
2023/12/03 05:13:06;;;;;;;;;;;;;;;;;;5017494;28;19925;-68
2023/12/03 05:15:32;;;;;;;;;;;;;;;;;;5015401;28;19947;-68
2023/12/03 05:17:58;;;;;;;;;;;;;;;;;;5018471;28;19936;-68
2023/12/03 05:20:24;;;;;;;;;;;;;;;;;;5018521;28;20415;-67
2023/12/03 05:22:51;;;;;;;;;;;;;;;;;;5025737;28;19931;-67
2023/12/03 05:25:18;;;;;;;;;;;;;;;;;;5018995;28;20398;-68
2023/12/03 05:27:44;;;;;;;;;;;;;;;;;;5038905;28;19969;-68
2023/12/03 05:30:10;;;;;;;;;;;;;;;;;;5036593;28;19967;-68
2023/12/03 05:32:35;;;;;;;;;;;;;;;;;;5019141;28;19968;-68
2023/12/03 05:35:02;;;;;;;;;;;;;;;;;;5015901;28;19921;-68
2023/12/03 05:37:29;;;;;;;;;;;;;;;;;;5010751;28;20432;-68
2023/12/03 05:39:54;;;;;;;;;;;;;;;;;;5034002;28;19925;-68
2023/12/03 05:42:23;;;;;;;;;;;;;;;;;;5036607;28;19979;-68
2023/12/03 05:44:49;;;;;;;;;;;;;;;;;;5011900;28;19940;-68
2023/12/03 05:47:15;;;;;;;;;;;;;;;;;;5026321;28;19921;-69
2023/12/03 05:49:41;;;;;;;;;;;;;;;;;;5013206;28;20294;-68
2023/12/03 05:52:07;;;;;;;;;;;;;;;;;;5018675;28;19921;-68
2023/12/03 05:54:33;;;;;;;;;;;;;;;;;;5032969;28;19974;-68
2023/12/03 05:56:59;;;;;;;;;;;;;;;;;;5015886;28;19921;-68
2023/12/03 05:59:26;;;;;;;;;;;;;;;;;;5019904;28;19929;-68
2023/12/03 06:01:52;;;;;;;;;;;;;;;;;;5040769;28;19933;-68
2023/12/03 06:04:18;;;;;;;;;;;;;;;;;;5015264;28;20267;-68
2023/12/03 06:06:44;;;;;;;;;;;;;;;;;;5008783;28;19925;-69
2023/12/03 06:09:09;;;;;;;;;;;;;;;;;;5013164;28;19925;-68
2023/12/03 06:11:35;;;;;;;;;;;;;;;;;;5038199;28;19920;-69
2023/12/03 06:14:01;;;;;;;;;;;;;;;;;;5015137;28;19925;-68
2023/12/03 06:16:27;;;;;;;;;;;;;;;;;;5032520;28;20136;-68
2023/12/03 06:18:53;;;;;;;;;;;;;;;;;;5020548;28;19925;-68
2023/12/03 06:21:19;;;;;;;;;;;;;;;;;;5014132;28;19929;-68
2023/12/03 06:23:45;;;;;;;;;;;;;;;;;;5036501;28;20267;-68
2023/12/03 06:26:11;;;;;;;;;;;;;;;;;;5016777;28;19958;-68
2023/12/03 06:28:37;;;;;;;;;;;;;;;;;;5023558;28;20491;-68
2023/12/03 06:31:03;;;;;;;;;;;;;;;;;;5034526;28;20385;-68
2023/12/03 06:33:29;;;;;;;;;;;;;;;;;;5024798;28;19999;-68
2023/12/03 06:35:55;;;;;;;;;;;;;;;;;;5014965;28;20008;-68
2023/12/03 06:38:21;;;;;;;;;;;;;;;;;;5015454;28;19948;-68
2023/12/03 06:40:47;;;;;;;;;;;;;;;;;;5044016;28;20414;-68
2023/12/03 06:43:13;;;;;;;;;;;;;;;;;;5024907;28;19995;-68
2023/12/03 06:45:39;;;;;;;;;;;;;;;;;;5008053;28;20016;-68
2023/12/03 06:48:05;;;;;;;;;;;;;;;;;;5037651;28;20390;-68
2023/12/03 06:50:30;;;;;;;;;;;;;;;;;;5032418;28;19921;-68
2023/12/03 06:52:56;;;;;;;;;;;;;;;;;;5019914;28;19921;-69
2023/12/03 06:55:22;;;;;;;;;;;;;;;;;;5017563;28;19925;-69
2023/12/03 06:57:48;;;;;;;;;;;;;;;;;;5014561;28;19952;-68
2023/12/03 07:00:14;;;;;;;;;;;;;;;;;;5013237;28;19925;-68
2023/12/03 07:02:40;;;;;;;;;;;;;;;;;;5016466;28;19959;-67
2023/12/03 07:05:06;;;;;;;;;;;;;;;;;;5022161;28;20378;-68
2023/12/03 07:07:32;;;;;;;;;;;;;;;;;;5023438;28;19936;-68
2023/12/03 07:09:58;;;;;;;;;;;;;;;;;;5019881;28;19956;-68
2023/12/03 07:12:24;;;;;;;;;;;;;;;;;;5024651;28;19988;-68
2023/12/03 07:14:50;;;;;;;;;;;;;;;;;;5031396;28;20007;-68
2023/12/03 07:17:15;;;;;;;;;;;;;;;;;;5005999;28;19927;-69
2023/12/03 07:19:41;;;;;;;;;;;;;;;;;;5028730;28;19931;-69
2023/12/03 07:22:07;;;;;;;;;;;;;;;;;;5029157;28;20309;-69
2023/12/03 07:24:33;;;;;;;;;;;;;;;;;;5019618;28;20004;-68
2023/12/03 07:26:59;;;;;;;;;;;;;;;;;;5029059;28;19952;-68
2023/12/03 07:29:25;;;;;;;;;;;;;;;;;;5032052;28;20374;-68
2023/12/03 07:31:51;;;;;;;;;;;;;;;;;;5028458;28;19956;-68
2023/12/03 07:34:17;;;;;;;;;;;;;;;;;;5014452;28;19959;-69
2023/12/03 07:36:43;;;;;;;;;;;;;;;;;;5014275;28;19925;-69
2023/12/03 07:39:09;;;;;;;;;;;;;;;;;;5030749;28;20293;-68
2023/12/03 07:41:35;;;;;;;;;;;;;;;;;;5042919;28;19925;-69
2023/12/03 07:44:00;;;;;;;;;;;;;;;;;;5028556;28;19925;-69
2023/12/03 07:46:26;;;;;;;;;;;;;;;;;;5029681;28;19921;-68
2023/12/03 07:48:52;;;;;;;;;;;;;;;;;;5010381;28;19927;-69
2023/12/03 07:51:18;;;;;;;;;;;;;;;;;;5014686;28;20012;-69
2023/12/03 07:53:44;;;;;;;;;;;;;;;;;;5028082;28;20043;-68
2023/12/03 07:56:10;;;;;;;;;;;;;;;;;;5028186;28;19921;-69
2023/12/03 07:58:36;;;;;;;;;;;;;;;;;;5023967;28;19928;-69
2023/12/03 08:01:03;;;;;;;;;;;;;;;;;;5020585;28;20440;-71
2023/12/03 08:03:29;;;;;;;;;;;;;;;;;;5038728;28;19927;-68
2023/12/03 08:05:55;;;;;;;;;;;;;;;;;;5030846;28;19921;-68
2023/12/03 08:08:21;;;;;;;;;;;;;;;;;;5010690;28;19925;-69
2023/12/03 08:10:47;;;;;;;;;;;;;;;;;;5024258;28;19931;-68
2023/12/03 08:13:13;;;;;;;;;;;;;;;;;;5041398;28;19974;-68
2023/12/03 08:15:39;;;;;;;;;;;;;;;;;;5013186;28;19974;-69
2023/12/03 08:18:04;;;;;;;;;;;;;;;;;;5046044;28;19925;-68
2023/12/03 08:20:30;;;;;;;;;;;;;;;;;;5018950;28;19929;-68
2023/12/03 08:22:56;;;;;;;;;;;;;;;;;;5010322;28;19921;-68
2023/12/03 08:25:22;;;;;;;;;;;;;;;;;;5012260;28;19964;-69
2023/12/03 08:27:48;;;;;;;;;;;;;;;;;;5039709;28;19928;-68
2023/12/03 08:30:14;;;;;;;;;;;;;;;;;;5044547;28;19925;-69
2023/12/03 08:32:40;;;;;;;;;;;;;;;;;;5018227;28;19921;-68
2023/12/03 08:35:06;;;;;;;;;;;;;;;;;;5022668;28;19921;-68
2023/12/03 08:37:32;;;;;;;;;;;;;;;;;;5042673;28;19925;-68
2023/12/03 08:39:58;;;;;;;;;;;;;;;;;;5011175;28;19979;-69
2023/12/03 08:42:24;;;;;;;;;;;;;;;;;;5047249;28;19921;-69
2023/12/03 08:44:50;;;;;;;;;;;;;;;;;;5043647;28;19929;-69
2023/12/03 08:47:16;;;;;;;;;;;;;;;;;;5027723;28;20299;-69
2023/12/03 08:49:42;;;;;;;;;;;;;;;;;;5017054;28;19935;-68
2023/12/03 08:52:08;;;;;;;;;;;;;;;;;;5020913;28;19960;-69
2023/12/03 08:54:34;;;;;;;;;;;;;;;;;;5035542;28;19929;-68
2023/12/03 08:57:00;;;;;;;;;;;;;;;;;;5015506;28;20414;-68
2023/12/03 08:59:26;;;;;;;;;;;;;;;;;;5029537;28;19928;-68
2023/12/03 09:01:52;;;;;;;;;;;;;;;;;;5018493;28;19925;-68
2023/12/03 09:04:18;;;;;;;;;;;;;;;;;;5033208;28;19935;-69
2023/12/03 09:06:46;;;;;;;;;;;;;;;;;;5023411;28;19920;-68
2023/12/03 09:09:12;;;;;;;;;;;;;;;;;;5029984;28;19971;-68
2023/12/03 09:11:37;;;;;;;;;;;;;;;;;;5018047;28;19961;-68
2023/12/03 09:14:03;;;;;;;;;;;;;;;;;;5020424;28;19978;-68
2023/12/03 09:16:29;;;;;;;;;;;;;;;;;;5030305;28;20012;-68
2023/12/03 09:18:55;;;;;;;;;;;;;;;;;;5022823;28;19921;-68
2023/12/03 09:21:23;;;;;;;;;;;;;;;;;;5024939;28;20038;-68
2023/12/03 09:23:49;;;;;;;;;;;;;;;;;;5036281;28;20291;-68
2023/12/03 09:26:16;;;;;;;;;;;;;;;;;;5014231;28;19928;-68
2023/12/03 09:28:42;;;;;;;;;;;;;;;;;;5030803;28;19925;-68
2023/12/03 09:31:07;;;;;;;;;;;;;;;;;;5018987;28;19932;-68
2023/12/03 09:33:33;;;;;;;;;;;;;;;;;;5027492;28;19921;-68
2023/12/03 09:35:59;;;;;;;;;;;;;;;;;;5011864;28;19925;-68
2023/12/03 09:38:25;;;;;;;;;;;;;;;;;;5034240;28;19932;-68
2023/12/03 09:40:51;;;;;;;;;;;;;;;;;;5037283;28;19930;-68
2023/12/03 09:43:20;;;;;;;;;;;;;;;;;;5010349;28;19925;-68
2023/12/03 09:45:49;;;;;;;;;;;;;;;;;;5046181;28;19921;-68
2023/12/03 09:48:15;;;;;;;;;;;;;;;;;;5036235;28;19925;-68
2023/12/03 09:50:42;;;;;;;;;;;;;;;;;;5010379;28;19921;-68
2023/12/03 09:53:08;;;;;;;;;;;;;;;;;;5045153;28;19929;-69
2023/12/03 09:55:34;;;;;;;;;;;;;;;;;;5050092;28;19927;-68
2023/12/03 09:58:00;;;;;;;;;;;;;;;;;;5013453;28;19929;-68
2023/12/03 10:00:29;;;;;;;;;;;;;;;;;;5026698;28;20333;-68
2023/12/03 10:02:55;;;;;;;;;;;;;;;;;;5021523;28;19925;-68
2023/12/03 10:05:21;;;;;;;;;;;;;;;;;;5040089;28;19932;-68
2023/12/03 10:07:47;;;;;;;;;;;;;;;;;;5006996;28;19975;-68
2023/12/03 10:10:13;;;;;;;;;;;;;;;;;;5026690;28;19977;-68
2023/12/03 10:12:39;;;;;;;;;;;;;;;;;;5028133;28;19956;-68
2023/12/03 10:15:05;;;;;;;;;;;;;;;;;;5025917;28;20015;-68
2023/12/03 10:17:31;;;;;;;;;;;;;;;;;;5012005;28;19926;-68
2023/12/03 10:19:57;;;;;;;;;;;;;;;;;;5012942;28;19925;-68
2023/12/03 10:22:23;;;;;;;;;;;;;;;;;;5016588;28;20016;-68
2023/12/03 10:24:49;;;;;;;;;;;;;;;;;;5019971;28;20043;-68
2023/12/03 10:27:14;;;;;;;;;;;;;;;;;;5007106;28;19960;-68
2023/12/03 10:29:40;;;;;;;;;;;;;;;;;;5011737;28;19935;-68
2023/12/03 10:32:06;;;;;;;;;;;;;;;;;;5020601;28;19928;-68
2023/12/03 10:34:32;;;;;;;;;;;;;;;;;;5027339;28;20128;-68
2023/12/03 10:37:00;;;;;;;;;;;;;;;;;;5034166;28;20375;-68
2023/12/03 10:39:26;;;;;;;;;;;;;;;;;;5020128;28;19933;-68
2023/12/03 10:41:52;;;;;;;;;;;;;;;;;;5051748;28;19951;-68
2023/12/03 10:44:18;;;;;;;;;;;;;;;;;;5045835;28;19928;-68
2023/12/03 10:46:44;;;;;;;;;;;;;;;;;;5015742;28;19921;-68
2023/12/03 10:49:10;;;;;;;;;;;;;;;;;;5007111;28;19928;-68
2023/12/03 10:51:36;;;;;;;;;;;;;;;;;;5025837;28;19925;-68
2023/12/03 10:54:02;;;;;;;;;;;;;;;;;;5015579;28;19996;-68
2023/12/03 10:56:28;;;;;;;;;;;;;;;;;;5009979;28;20016;-68
2023/12/03 10:58:54;;;;;;;;;;;;;;;;;;5022256;28;20003;-68
2023/12/03 11:01:20;;;;;;;;;;;;;;;;;;5009762;28;19925;-68
2023/12/03 11:03:46;;;;;;;;;;;;;;;;;;5014922;28;20012;-68
2023/12/03 11:06:12;;;;;;;;;;;;;;;;;;5038884;28;20067;-67
2023/12/03 11:08:38;;;;;;;;;;;;;;;;;;5027232;28;19936;-67
2023/12/03 11:11:04;;;;;;;;;;;;;;;;;;5026350;28;19929;-67
2023/12/03 11:13:30;;;;;;;;;;;;;;;;;;5045685;28;19936;-67
2023/12/03 11:15:56;;;;;;;;;;;;;;;;;;5025871;28;19928;-67
2023/12/03 11:18:22;;;;;;;;;;;;;;;;;;5032699;28;19928;-67
2023/12/03 11:20:48;;;;;;;;;;;;;;;;;;5031571;28;19936;-67
2023/12/03 11:23:15;;;;;;;;;;;;;;;;;;5027483;28;19921;-67
2023/12/03 11:25:41;;;;;;;;;;;;;;;;;;5078821;23;19972;-59
2023/12/03 11:28:06;;;;;;;;;;;;;;;;;;5087814;28;19975;-59
2023/12/03 11:30:32;;;;;;;;;;;;;;;;;;5088228;28;19952;-59
2023/12/03 11:32:58;;;;;;;;;;;;;;;;;;5090365;28;20095;-59
2023/12/03 11:35:24;;;;;;;;;;;;;;;;;;5081280;28;19967;-60
2023/12/03 11:37:50;;;;;;;;;;;;;;;;;;5087227;28;19935;-59
2023/12/03 11:40:16;;;;;;;;;;;;;;;;;;5086196;28;19939;-60
2023/12/03 11:42:42;;;;;;;;;;;;;;;;;;5090455;28;19935;-60
2023/12/03 11:45:08;;;;;;;;;;;;;;;;;;5091602;28;20277;-60
2023/12/03 11:47:34;;;;;;;;;;;;;;;;;;5081383;28;19920;-60
2023/12/03 11:50:00;;;;;;;;;;;;;;;;;;5084001;28;19924;-60
2023/12/03 11:52:26;;;;;;;;;;;;;;;;;;5092379;28;20015;-61
2023/12/03 11:54:52;;;;;;;;;;;;;;;;;;5080454;28;19924;-61
2023/12/03 11:57:18;;;;;;;;;;;;;;;;;;5083126;28;19920;-62
2023/12/03 11:59:44;;;;;;;;;;;;;;;;;;5085108;28;19927;-60
2023/12/03 12:02:10;;;;;;;;;;;;;;;;;;5088863;28;19928;-60
2023/12/03 12:04:36;;;;;;;;;;;;;;;;;;5087720;28;20526;-62
2023/12/03 12:07:02;;;;;;;;;;;;;;;;;;5089454;28;20309;-60
2023/12/03 12:09:28;;;;;;;;;;;;;;;;;;5088512;28;19951;-61
2023/12/03 12:11:53;;;;;;;;;;;;;;;;;;5087404;28;19924;-61
2023/12/03 12:14:19;;;;;;;;;;;;;;;;;;5076745;28;19920;-60
2023/12/03 12:16:46;;;;;;;;;;;;;;;;;;5084273;28;19928;-61
2023/12/03 12:19:11;;;;;;;;;;;;;;;;;;5090800;28;19924;-61
2023/12/03 12:21:37;;;;;;;;;;;;;;;;;;5089791;28;19981;-61
2023/12/03 12:24:03;;;;;;;;;;;;;;;;;;5083924;28;20303;-61
2023/12/03 12:26:29;;;;;;;;;;;;;;;;;;5088464;28;19924;-61
2023/12/03 12:28:55;;;;;;;;;;;;;;;;;;5091484;28;19973;-60
2023/12/03 12:31:26;;;;;;;;;;;;;;;;;;5085002;28;19924;-61
2023/12/03 12:33:52;;;;;;;;;;;;;;;;;;5083725;28;19924;-61
2023/12/03 12:36:18;;;;;;;;;;;;;;;;;;5072692;28;19931;-61
2023/12/03 12:38:44;;;;;;;;;;;;;;;;;;5091332;28;19920;-61
2023/12/03 12:41:10;;;;;;;;;;;;;;;;;;5089645;28;20002;-60
2023/12/03 12:43:36;;;;;;;;;;;;;;;;;;5092551;28;19924;-60
2023/12/03 12:46:02;;;;;;;;;;;;;;;;;;5085564;28;19931;-60
2023/12/03 12:48:33;;;;;;;;;;;;;;;;;;5091264;28;19920;-60
2023/12/03 12:50:59;;;;;;;;;;;;;;;;;;5091048;28;20012;-61
2023/12/03 12:53:24;;;;;;;;;;;;;;;;;;5088828;28;19971;-61
2023/12/03 12:55:50;;;;;;;;;;;;;;;;;;5090997;28;19928;-61
2023/12/03 12:58:16;;;;;;;;;;;;;;;;;;5081746;28;19928;-60
2023/12/03 13:00:42;;;;;;;;;;;;;;;;;;5085080;28;19936;-60
2023/12/03 13:03:08;;;;;;;;;;;;;;;;;;5087264;28;19928;-60
2023/12/03 13:05:35;;;;;;;;;;;;;;;;;;5082834;28;19924;-60
2023/12/03 13:08:01;;;;;;;;;;;;;;;;;;5090306;28;19967;-60
2023/12/03 13:10:27;;;;;;;;;;;;;;;;;;5084241;28;20037;-61
2023/12/03 13:12:53;;;;;;;;;;;;;;;;;;5075280;28;19924;-60
2023/12/03 13:15:19;;;;;;;;;;;;;;;;;;5086967;28;19964;-60
2023/12/03 13:17:45;;;;;;;;;;;;;;;;;;5088368;28;19959;-60
2023/12/03 13:20:11;;;;;;;;;;;;;;;;;;5087847;28;19928;-60
2023/12/03 13:22:37;;;;;;;;;;;;;;;;;;5082183;28;19943;-60
2023/12/03 13:25:03;;;;;;;;;;;;;;;;;;5084023;28;19921;-60
2023/12/03 13:27:29;;;;;;;;;;;;;;;;;;5087513;28;20304;-60
2023/12/03 13:29:55;;;;;;;;;;;;;;;;;;5088763;28;19986;-60
2023/12/03 13:32:21;;;;;;;;;;;;;;;;;;5080355;28;20011;-59
2023/12/03 13:34:47;;;;;;;;;;;;;;;;;;5088850;28;19959;-60
2023/12/03 13:37:13;;;;;;;;;;;;;;;;;;5087958;28;19924;-60
2023/12/03 13:39:39;;;;;;;;;;;;;;;;;;5089171;28;19920;-60
2023/12/03 13:42:05;;;;;;;;;;;;;;;;;;5088108;28;20438;-60
2023/12/03 13:44:32;;;;;;;;;;;;;;;;;;5089498;28;19924;-60
2023/12/03 13:46:58;;;;;;;;;;;;;;;;;;5079985;28;19920;-60
2023/12/03 13:49:23;;;;;;;;;;;;;;;;;;5090222;28;19920;-60
2023/12/03 13:51:50;;;;;;;;;;;;;;;;;;5090240;28;19920;-60
2023/12/03 13:54:16;;;;;;;;;;;;;;;;;;5080372;28;19939;-60
2023/12/03 13:56:42;;;;;;;;;;;;;;;;;;5090712;28;19920;-60
2023/12/03 13:59:07;;;;;;;;;;;;;;;;;;5086756;28;20377;-60
2023/12/03 14:01:33;;;;;;;;;;;;;;;;;;5086390;28;19935;-60
2023/12/03 14:03:59;;;;;;;;;;;;;;;;;;5087795;28;19924;-60
2023/12/03 14:06:25;;;;;;;;;;;;;;;;;;5089621;28;19939;-60
2023/12/03 14:08:51;;;;;;;;;;;;;;;;;;5088646;28;19919;-60
2023/12/03 14:11:17;;;;;;;;;;;;;;;;;;5088372;28;19924;-60
2023/12/03 14:13:43;;;;;;;;;;;;;;;;;;5090007;28;19936;-60
2023/12/03 14:16:09;;;;;;;;;;;;;;;;;;5086502;28;19920;-61
2023/12/03 14:18:35;;;;;;;;;;;;;;;;;;5086194;28;19920;-61
2023/12/03 14:21:01;;;;;;;;;;;;;;;;;;5081511;28;19985;-61
2023/12/03 14:23:28;;;;;;;;;;;;;;;;;;5081313;28;20285;-61
2023/12/03 14:25:54;;;;;;;;;;;;;;;;;;5093884;28;19924;-61
2023/12/03 14:28:20;;;;;;;;;;;;;;;;;;5089830;28;20447;-58
2023/12/03 14:30:46;;;;;;;;;;;;;;;;;;5089976;28;19924;-60
2023/12/03 14:33:12;;;;;;;;;;;;;;;;;;5081550;28;19920;-60
2023/12/03 14:35:38;;;;;;;;;;;;;;;;;;5092556;28;19930;-60
2023/12/03 14:38:04;;;;;;;;;;;;;;;;;;5093598;28;20380;-60
2023/12/03 14:40:30;;;;;;;;;;;;;;;;;;5094147;28;19924;-60
2023/12/03 14:42:55;;;;;;;;;;;;;;;;;;5093366;28;19993;-60
2023/12/03 14:45:21;;;;;;;;;;;;;;;;;;5093122;28;19931;-60
2023/12/03 14:47:47;;;;;;;;;;;;;;;;;;5090760;28;19924;-60
2023/12/03 14:50:17;;;;;;;;;;;;;;;;;;5090289;28;19920;-60
2023/12/03 14:52:43;;;;;;;;;;;;;;;;;;5093240;28;19955;-60
2023/12/03 14:55:09;;;;;;;;;;;;;;;;;;5091318;28;20307;-59
2023/12/03 14:57:35;;;;;;;;;;;;;;;;;;5089266;28;20280;-60
2023/12/03 15:00:01;;;;;;;;;;;;;;;;;;5093266;28;19958;-60
2023/12/03 15:02:27;;;;;;;;;;;;;;;;;;5090536;28;20696;-60
2023/12/03 15:04:52;;;;;;;;;;;;;;;;;;5091321;28;19920;-60
2023/12/03 15:07:18;;;;;;;;;;;;;;;;;;5094007;28;20361;-60
2023/12/03 15:09:44;;;;;;;;;;;;;;;;;;5073778;28;19969;-60
2023/12/03 15:12:10;;;;;;;;;;;;;;;;;;5087669;28;19928;-60
2023/12/03 15:14:36;;;;;;;;;;;;;;;;;;5090865;28;19924;-60
2023/12/03 15:17:03;;;;;;;;;;;;;;;;;;5081461;28;19920;-60
2023/12/03 15:19:30;;;;;;;;;;;;;;;;;;5087143;28;20058;-60
2023/12/03 15:21:56;;;;;;;;;;;;;;;;;;5089691;28;19924;-59
2023/12/03 15:24:22;;;;;;;;;;;;;;;;;;5087851;28;20292;-59
2023/12/03 15:26:48;;;;;;;;;;;;;;;;;;5088083;28;19985;-59
2023/12/03 15:29:14;;;;;;;;;;;;;;;;;;5085929;28;19928;-59
2023/12/03 15:31:40;;;;;;;;;;;;;;;;;;5086654;28;19927;-59
2023/12/03 15:34:06;;;;;;;;;;;;;;;;;;5090228;28;19924;-60
2023/12/03 15:36:32;;;;;;;;;;;;;;;;;;5091535;28;20329;-59
2023/12/03 15:38:58;;;;;;;;;;;;;;;;;;5080734;28;19959;-59
2023/12/03 15:41:24;;;;;;;;;;;;;;;;;;5078392;28;19968;-59
2023/12/03 15:43:50;;;;;;;;;;;;;;;;;;5081778;28;19925;-60
2023/12/03 15:46:16;;;;;;;;;;;;;;;;;;5094559;28;19920;-60
2023/12/03 15:48:42;;;;;;;;;;;;;;;;;;5086453;28;19920;-60
2023/12/03 15:51:08;;;;;;;;;;;;;;;;;;5079117;28;19924;-60
2023/12/03 15:53:34;;;;;;;;;;;;;;;;;;5084993;28;19978;-60
2023/12/03 15:56:00;;;;;;;;;;;;;;;;;;5090334;28;20648;-61
2023/12/03 15:58:26;;;;;;;;;;;;;;;;;;5079601;28;19920;-60
2023/12/03 16:00:51;;;;;;;;;;;;;;;;;;5073274;28;20069;-60
2023/12/03 16:03:17;;;;;;;;;;;;;;;;;;5090813;28;19920;-61
2023/12/03 16:05:43;;;;;;;;;;;;;;;;;;5089280;28;20944;-61
2023/12/03 16:08:09;;;;;;;;;;;;;;;;;;5090510;28;19920;-60
2023/12/03 16:10:35;;;;;;;;;;;;;;;;;;5089577;28;19968;-60
2023/12/03 16:13:01;;;;;;;;;;;;;;;;;;5090762;28;20304;-60
2023/12/03 16:15:27;;;;;;;;;;;;;;;;;;5090591;28;19927;-60
2023/12/03 16:17:55;;;;;;;;;;;;;;;;;;5090647;28;19924;-60
2023/12/03 16:20:21;;;;;;;;;;;;;;;;;;5081545;28;19928;-61
2023/12/03 16:22:49;;;;;;;;;;;;;;;;;;5078643;28;19924;-60
2023/12/03 16:25:16;;;;;;;;;;;;;;;;;;5077142;28;19920;-61
2023/12/03 16:27:42;;;;;;;;;;;;;;;;;;5083052;28;19924;-60
2023/12/03 16:30:08;;;;;;;;;;;;;;;;;;5084533;28;20359;-60
2023/12/03 16:32:34;;;;;;;;;;;;;;;;;;5085642;28;20350;-60
2023/12/03 16:35:00;;;;;;;;;;;;;;;;;;5080743;28;19956;-60
2023/12/03 16:37:26;;;;;;;;;;;;;;;;;;5083795;28;20009;-60